Time;durP1;ratioP1;P1;durP2;ratioP2;P2;SDS_P1;SDS_P2;PMS_P1;PMS_P2;Temp;Humidity;BMP_temperature;BMP_pressure;BME280_temperature;BME280_humidity;BME280_pressure;Samples;Min_cycle;Max_cycle;Signal;HPM_P1;HPM_P2
2022/06/12 00:00:52;;;;;;;82.47;14.38;;;;;;;;;;5018247;28;20042;-58
2022/06/12 00:03:21;;;;;;;82.53;14.70;;;;;;;;;;5013553;28;20088;-55
2022/06/12 00:05:49;;;;;;;72.18;14.13;;;;;;;;;;5017230;28;20416;-56
2022/06/12 00:08:17;;;;;;;74.55;13.55;;;;;;;;;;5014461;28;20425;-58
2022/06/12 00:10:46;;;;;;;70.03;12.77;;;;;;;;;;5018998;28;20030;-57
2022/06/12 00:13:14;;;;;;;70.28;12.90;;;;;;;;;;5015661;28;20072;-57
2022/06/12 00:15:41;;;;;;;75.40;15.10;;;;;;;;;;5024351;28;20105;-57
2022/06/12 00:18:09;;;;;;;62.63;11.63;;;;;;;;;;5019328;28;20041;-59
2022/06/12 00:20:36;;;;;;;65.35;12.50;;;;;;;;;;4998847;28;20484;-59
2022/06/12 00:23:06;;;;;;;51.75;11.35;;;;;;;;;;4998679;28;20508;-57
2022/06/12 00:25:33;;;;;;;58.15;12.27;;;;;;;;;;5028917;28;20021;-59
2022/06/12 00:28:00;;;;;;;62.40;11.90;;;;;;;;;;5020647;28;20038;-59
2022/06/12 00:30:27;;;;;;;58.55;11.07;;;;;;;;;;5015180;28;20029;-57
2022/06/12 00:32:55;;;;;;;54.55;11.70;;;;;;;;;;5013157;28;20113;-58
2022/06/12 00:35:27;;;;;;;53.55;10.80;;;;;;;;;;4993808;28;20551;-60
2022/06/12 00:37:54;;;;;;;51.33;10.75;;;;;;;;;;5022823;28;20032;-58
2022/06/12 00:40:22;;;;;;;46.63;10.50;;;;;;;;;;5029747;28;20025;-58
2022/06/12 00:42:53;;;;;;;50.25;10.52;;;;;;;;;;5011394;28;20108;-59
2022/06/12 00:45:38;;;;;;;58.20;10.63;;;;;;;;;;5029429;28;20112;-59
2022/06/12 00:48:10;;;;;;;42.95;8.57;;;;;;;;;;5027622;28;20102;-57
2022/06/12 00:50:39;;;;;;;46.92;10.05;;;;;;;;;;5026882;28;20075;-59
2022/06/12 00:53:07;;;;;;;40.25;8.68;;;;;;;;;;5029442;28;20026;-57
2022/06/12 00:55:43;;;;;;;49.58;9.07;;;;;;;;;;5028960;28;20026;-59
2022/06/12 00:58:17;;;;;;;46.50;8.48;;;;;;;;;;5028784;28;20017;-59
2022/06/12 01:00:44;;;;;;;40.38;8.77;;;;;;;;;;5031065;28;20025;-58
2022/06/12 01:03:11;;;;;;;44.20;9.13;;;;;;;;;;5030833;28;20523;-58
2022/06/12 01:08:24;;;;;;;40.85;7.97;;;;;;;;;;5011541;28;20048;-58
2022/06/12 01:10:53;;;;;;;31.77;8.20;;;;;;;;;;5011412;28;20112;-58
2022/06/12 01:13:28;;;;;;;37.75;7.72;;;;;;;;;;5010497;28;20105;-58
2022/06/12 01:16:01;;;;;;;37.83;7.95;;;;;;;;;;4993960;28;20021;-58
2022/06/12 01:18:32;;;;;;;35.25;8.20;;;;;;;;;;5027240;28;20025;-57
2022/06/12 01:20:59;;;;;;;34.13;7.97;;;;;;;;;;5030532;28;20021;-57
2022/06/12 01:23:34;;;;;;;35.78;7.97;;;;;;;;;;5029495;28;20025;-58
2022/06/12 01:26:19;;;;;;;34.72;7.65;;;;;;;;;;5030973;28;20116;-56
2022/06/12 01:28:49;;;;;;;37.17;8.52;;;;;;;;;;5029659;28;20041;-57
2022/06/12 01:31:25;;;;;;;33.20;7.80;;;;;;;;;;5031202;28;20025;-57
2022/06/12 01:34:08;;;;;;;30.58;7.43;;;;;;;;;;5030047;28;20037;-58
2022/06/12 01:36:49;;;;;;;34.67;7.85;;;;;;;;;;5031035;28;20029;-57
2022/06/12 01:39:21;;;;;;;32.88;7.28;;;;;;;;;;5030825;28;20092;-57
2022/06/12 01:41:52;;;;;;;37.33;8.55;;;;;;;;;;5029694;28;20024;-56
2022/06/12 01:44:22;;;;;;;30.23;7.60;;;;;;;;;;5030989;28;20056;-57
2022/06/12 01:46:49;;;;;;;38.58;10.27;;;;;;;;;;4999801;28;20120;-57
2022/06/12 01:49:29;;;;;;;56.08;12.60;;;;;;;;;;5020840;28;20082;-57
2022/06/12 01:51:56;;;;;;;59.60;15.48;;;;;;;;;;5030331;28;20384;-58
2022/06/12 01:54:28;;;;;;;83.00;19.98;;;;;;;;;;5030480;28;20041;-56
2022/06/12 01:57:05;;;;;;;104.78;24.25;;;;;;;;;;5012332;28;20022;-56
2022/06/12 01:59:38;;;;;;;103.53;25.13;;;;;;;;;;5030688;28;20089;-57
2022/06/12 02:02:10;;;;;;;115.88;27.73;;;;;;;;;;5029664;28;20430;-57
2022/06/12 02:04:47;;;;;;;132.10;29.27;;;;;;;;;;5029905;28;20072;-57
2022/06/12 02:07:17;;;;;;;135.52;31.67;;;;;;;;;;5026437;28;20703;-57
2022/06/12 02:09:51;;;;;;;123.55;31.38;;;;;;;;;;5029620;28;20033;-58
2022/06/12 02:15:08;;;;;;;119.30;30.73;;;;;;;;;;5030636;28;20510;-57
2022/06/12 02:17:38;;;;;;;121.32;30.17;;;;;;;;;;5029794;28;20018;-57
2022/06/12 02:20:07;;;;;;;129.43;30.20;;;;;;;;;;5012704;28;20383;-56
2022/06/12 02:22:35;;;;;;;123.85;30.52;;;;;;;;;;5029287;28;20033;-57
2022/06/12 02:25:13;;;;;;;115.80;28.85;;;;;;;;;;5029173;28;20522;-55
2022/06/12 02:27:43;;;;;;;106.03;27.92;;;;;;;;;;5029324;28;20050;-56
2022/06/12 02:30:28;;;;;;;102.60;26.88;;;;;;;;;;5032163;28;20018;-56
2022/06/12 02:33:04;;;;;;;113.72;27.98;;;;;;;;;;5033021;28;20048;-56
2022/06/12 02:35:39;;;;;;;103.78;27.08;;;;;;;;;;5009339;28;20026;-58
2022/06/12 02:38:11;;;;;;;111.90;19.88;;;;;;;;;;5026128;28;20091;-57
2022/06/12 02:40:49;;;;;;;93.63;22.95;;;;;;;;;;5017362;28;20085;-59
2022/06/12 02:43:20;;;;;;;102.47;24.65;;;;;;;;;;5013397;28;20022;-58
2022/06/12 02:46:02;;;;;;;100.32;24.23;;;;;;;;;;5016257;28;20052;-59
2022/06/12 02:48:30;;;;;;;87.05;22.75;;;;;;;;;;5025729;28;20023;-57
2022/06/12 02:51:07;;;;;;;92.47;24.63;;;;;;;;;;5027683;28;20352;-59
2022/06/12 02:53:46;;;;;;;91.43;23.77;;;;;;;;;;5027139;28;20033;-57
2022/06/12 02:56:34;;;;;;;81.13;22.30;;;;;;;;;;5025965;28;20037;-57
2022/06/12 02:59:07;;;;;;;87.90;22.58;;;;;;;;;;5026368;28;20083;-57
2022/06/12 03:01:38;;;;;;;91.38;22.48;;;;;;;;;;5020512;28;20045;-59
2022/06/12 03:04:13;;;;;;;81.88;20.20;;;;;;;;;;5013184;28;20108;-59
2022/06/12 03:06:41;;;;;;;74.05;21.02;;;;;;;;;;5026258;28;20492;-57
2022/06/12 03:09:09;;;;;;;76.88;20.75;;;;;;;;;;5023805;28;20044;-58
2022/06/12 03:11:38;;;;;;;82.80;20.88;;;;;;;;;;5012733;28;20021;-57
2022/06/12 03:14:14;;;;;;;77.47;21.13;;;;;;;;;;5029051;28;20030;-58
2022/06/12 03:16:43;;;;;;;74.43;19.88;;;;;;;;;;5029073;28;20380;-57
2022/06/12 03:19:12;;;;;;;65.03;18.30;;;;;;;;;;5027543;28;20483;-58
2022/06/12 03:21:55;;;;;;;81.97;20.73;;;;;;;;;;5022439;28;20029;-58
2022/06/12 03:24:23;;;;;;;62.47;17.90;;;;;;;;;;5022166;28;20122;-58
2022/06/12 03:26:59;;;;;;;66.43;18.70;;;;;;;;;;5026195;28;20390;-58
2022/06/12 03:29:40;;;;;;;64.25;17.80;;;;;;;;;;4999584;28;20072;-59
2022/06/12 03:32:07;;;;;;;64.30;17.85;;;;;;;;;;5018520;28;20559;-58
2022/06/12 03:34:58;;;;;;;58.13;17.48;;;;;;;;;;5020845;28;20033;-59
2022/06/12 03:37:36;;;;;;;64.78;18.08;;;;;;;;;;4982032;28;20446;-57
2022/06/12 03:40:04;;;;;;;60.80;17.23;;;;;;;;;;5028136;28;20021;-59
2022/06/12 03:42:32;;;;;;;54.33;16.48;;;;;;;;;;5023510;28;20030;-58
2022/06/12 03:45:18;;;;;;;52.67;16.40;;;;;;;;;;5030224;28;20017;-59
2022/06/12 03:48:15;;;;;;;62.17;16.48;;;;;;;;;;4996812;28;20065;-59
2022/06/12 03:50:46;;;;;;;55.83;15.63;;;;;;;;;;4961634;28;20043;-58
2022/06/12 03:53:32;;;;;;;59.75;15.85;;;;;;;;;;5025568;28;20030;-58
2022/06/12 03:58:52;;;;;;;56.55;15.20;;;;;;;;;;5033859;28;20040;-58
2022/06/12 04:01:19;;;;;;;51.90;14.73;;;;;;;;;;5033094;28;20031;-58
2022/06/12 04:03:47;;;;;;;46.70;14.02;;;;;;;;;;5027277;28;20032;-58
2022/06/12 04:06:18;;;;;;;52.90;14.50;;;;;;;;;;5013065;28;20037;-58
2022/06/12 04:08:48;;;;;;;53.75;13.82;;;;;;;;;;5013789;28;20037;-59
2022/06/12 04:11:17;;;;;;;55.72;14.73;;;;;;;;;;5012948;28;20113;-59
2022/06/12 04:13:44;;;;;;;48.67;14.48;;;;;;;;;;5013501;28;20488;-58
2022/06/12 04:16:12;;;;;;;67.80;14.57;;;;;;;;;;5013212;28;20029;-59
2022/06/12 04:18:39;;;;;;;48.95;13.73;;;;;;;;;;5012888;28;20551;-59
2022/06/12 04:21:10;;;;;;;47.95;13.60;;;;;;;;;;5013060;28;20414;-59
2022/06/12 04:23:40;;;;;;;50.25;14.20;;;;;;;;;;4995575;28;20061;-59
2022/06/12 04:26:13;;;;;;;43.88;13.52;;;;;;;;;;5012413;28;20484;-59
2022/06/12 04:28:44;;;;;;;46.63;12.90;;;;;;;;;;5019185;28;20069;-59
2022/06/12 04:31:18;;;;;;;50.63;12.82;;;;;;;;;;5032359;28;20388;-59
2022/06/12 04:33:53;;;;;;;46.50;13.25;;;;;;;;;;5032759;28;20033;-59
2022/06/12 04:36:20;;;;;;;46.67;12.15;;;;;;;;;;5031347;28;20021;-59
2022/06/12 04:38:47;;;;;;;41.53;12.25;;;;;;;;;;5032989;28;20029;-59
2022/06/12 04:41:24;;;;;;;45.08;12.13;;;;;;;;;;5031876;28;20037;-59
2022/06/12 04:43:51;;;;;;;45.13;12.77;;;;;;;;;;5032516;28;20040;-59
2022/06/12 04:46:19;;;;;;;36.78;11.55;;;;;;;;;;5032110;28;20368;-59
2022/06/12 04:48:48;;;;;;;40.92;11.75;;;;;;;;;;5031773;28;20030;-59
2022/06/12 04:51:15;;;;;;;44.28;11.60;;;;;;;;;;5032432;28;20026;-59
2022/06/12 04:53:43;;;;;;;36.97;11.57;;;;;;;;;;5032213;28;20096;-59
2022/06/12 04:56:10;;;;;;;45.60;11.90;;;;;;;;;;5014155;28;20518;-59
2022/06/12 04:58:38;;;;;;;38.03;10.80;;;;;;;;;;5032511;28;20030;-59
2022/06/12 05:01:05;;;;;;;37.85;11.00;;;;;;;;;;5031454;28;20036;-59
2022/06/12 05:03:32;;;;;;;35.25;11.70;;;;;;;;;;5032338;28;20037;-59
2022/06/12 05:05:59;;;;;;;30.88;10.45;;;;;;;;;;5031899;28;20487;-59
2022/06/12 05:08:26;;;;;;;34.95;10.77;;;;;;;;;;5031780;28;20029;-59
2022/06/12 05:10:53;;;;;;;35.85;10.63;;;;;;;;;;5032426;28;20034;-59
2022/06/12 05:13:21;;;;;;;34.65;9.90;;;;;;;;;;5031587;28;20025;-59
2022/06/12 05:15:48;;;;;;;29.27;10.07;;;;;;;;;;5032167;28;20086;-58
2022/06/12 05:18:16;;;;;;;30.85;9.48;;;;;;;;;;5032057;28;20059;-59
2022/06/12 05:20:45;;;;;;;32.55;10.65;;;;;;;;;;5031238;28;20044;-59
2022/06/12 05:23:12;;;;;;;33.20;9.38;;;;;;;;;;5031936;28;20049;-58
2022/06/12 05:25:40;;;;;;;27.65;8.23;;;;;;;;;;5031565;28;20053;-59
2022/06/12 05:28:07;;;;;;;30.77;9.68;;;;;;;;;;5031397;28;20049;-58
2022/06/12 05:30:35;;;;;;;29.20;9.57;;;;;;;;;;5031094;28;20030;-59
2022/06/12 05:33:03;;;;;;;30.02;9.60;;;;;;;;;;5031378;28;20044;-58
2022/06/12 05:35:31;;;;;;;24.67;8.27;;;;;;;;;;5031529;28;20040;-58
2022/06/12 05:38:00;;;;;;;27.95;8.95;;;;;;;;;;5031972;28;20040;-58
2022/06/12 05:40:32;;;;;;;22.02;8.35;;;;;;;;;;5030611;28;20079;-59
2022/06/12 05:43:00;;;;;;;22.13;8.63;;;;;;;;;;5031840;28;20438;-59
2022/06/12 05:45:28;;;;;;;26.55;8.00;;;;;;;;;;5030945;28;20045;-58
2022/06/12 05:48:01;;;;;;;24.77;8.13;;;;;;;;;;5031323;28;20028;-58
2022/06/12 05:50:30;;;;;;;23.48;7.63;;;;;;;;;;5031736;28;20056;-58
2022/06/12 05:52:57;;;;;;;26.27;8.55;;;;;;;;;;5030676;28;20053;-59
2022/06/12 05:55:24;;;;;;;22.45;7.88;;;;;;;;;;5031496;28;20028;-58
2022/06/12 05:57:51;;;;;;;22.70;7.47;;;;;;;;;;5031020;28;20108;-59
2022/06/12 06:00:22;;;;;;;27.13;7.85;;;;;;;;;;5031256;28;20025;-58
2022/06/12 06:02:49;;;;;;;20.20;7.07;;;;;;;;;;5031493;28;20052;-58
2022/06/12 06:05:17;;;;;;;23.02;8.10;;;;;;;;;;5012656;28;20025;-59
2022/06/12 06:07:44;;;;;;;25.85;7.38;;;;;;;;;;5031445;28;20108;-59
2022/06/12 06:10:14;;;;;;;20.63;7.10;;;;;;;;;;5030740;28;20049;-59
2022/06/12 06:12:41;;;;;;;19.08;7.25;;;;;;;;;;5031468;28;20434;-59
2022/06/12 06:15:10;;;;;;;22.35;7.25;;;;;;;;;;5013483;28;20079;-59
2022/06/12 06:17:37;;;;;;;17.90;6.43;;;;;;;;;;5030710;28;20030;-59
2022/06/12 06:20:05;;;;;;;21.67;7.50;;;;;;;;;;5031044;28;20040;-59
2022/06/12 06:22:32;;;;;;;19.73;6.85;;;;;;;;;;5030914;28;20044;-58
2022/06/12 06:24:59;;;;;;;16.73;6.63;;;;;;;;;;5031395;28;20025;-58
2022/06/12 06:27:26;;;;;;;21.08;7.40;;;;;;;;;;5030530;28;20559;-59
2022/06/12 06:29:53;;;;;;;18.13;6.00;;;;;;;;;;5031635;28;20025;-59
2022/06/12 06:32:20;;;;;;;18.42;6.50;;;;;;;;;;5030457;28;20559;-58
2022/06/12 06:34:47;;;;;;;18.08;6.57;;;;;;;;;;5031459;28;20471;-59
2022/06/12 06:37:14;;;;;;;17.35;6.30;;;;;;;;;;5031536;28;20030;-59
2022/06/12 06:39:42;;;;;;;18.73;6.38;;;;;;;;;;5030449;28;20108;-59
2022/06/12 06:42:10;;;;;;;18.77;6.13;;;;;;;;;;5031333;28;20030;-59
2022/06/12 06:47:23;;;;;;;18.20;6.07;;;;;;;;;;5031775;28;20450;-59
2022/06/12 06:49:50;;;;;;;15.98;5.93;;;;;;;;;;5031107;28;20518;-59
2022/06/12 06:52:17;;;;;;;17.83;6.60;;;;;;;;;;5031297;28;20482;-59
2022/06/12 06:54:44;;;;;;;17.58;6.20;;;;;;;;;;5012339;28;20479;-59
2022/06/12 06:57:12;;;;;;;12.98;5.38;;;;;;;;;;5030403;28;20036;-59
2022/06/12 06:59:39;;;;;;;13.90;5.22;;;;;;;;;;5031369;28;20021;-59
2022/06/12 07:02:06;;;;;;;14.00;5.03;;;;;;;;;;5030922;28;20033;-59
2022/06/12 07:04:33;;;;;;;16.42;5.68;;;;;;;;;;5030279;28;20112;-59
2022/06/12 07:07:01;;;;;;;13.50;5.40;;;;;;;;;;5030864;28;20395;-59
2022/06/12 07:09:28;;;;;;;14.65;5.22;;;;;;;;;;5030918;28;20370;-59
2022/06/12 07:11:55;;;;;;;12.38;4.93;;;;;;;;;;5031164;28;20105;-59
2022/06/12 07:14:22;;;;;;;13.38;5.13;;;;;;;;;;5030465;28;20029;-59
2022/06/12 07:16:49;;;;;;;15.52;5.57;;;;;;;;;;5032458;28;20387;-59
2022/06/12 07:19:16;;;;;;;14.60;5.05;;;;;;;;;;5034251;28;20032;-59
2022/06/12 07:21:43;;;;;;;16.27;5.15;;;;;;;;;;5034056;28;20507;-59
2022/06/12 07:24:11;;;;;;;13.50;4.80;;;;;;;;;;5016146;28;20068;-59
2022/06/12 07:26:40;;;;;;;10.60;4.40;;;;;;;;;;5033778;28;20044;-59
2022/06/12 07:29:08;;;;;;;12.18;4.53;;;;;;;;;;5033579;28;20033;-59
2022/06/12 07:31:35;;;;;;;15.30;5.07;;;;;;;;;;5033962;28;20100;-59
2022/06/12 07:34:02;;;;;;;12.15;4.95;;;;;;;;;;5033838;28;20044;-59
2022/06/12 07:36:30;;;;;;;15.07;4.68;;;;;;;;;;5033763;28;20060;-59
2022/06/12 07:38:57;;;;;;;12.70;4.63;;;;;;;;;;5033960;28;20026;-59
2022/06/12 07:41:24;;;;;;;13.13;4.93;;;;;;;;;;5033206;28;20086;-59
2022/06/12 07:43:51;;;;;;;10.65;4.28;;;;;;;;;;5033199;28;20033;-59
2022/06/12 07:46:19;;;;;;;13.70;5.47;;;;;;;;;;5034082;28;20079;-59
2022/06/12 07:48:47;;;;;;;11.73;4.85;;;;;;;;;;5016301;28;20026;-59
2022/06/12 07:51:17;;;;;;;11.20;4.30;;;;;;;;;;5033727;28;20040;-59
2022/06/12 07:53:45;;;;;;;13.10;4.40;;;;;;;;;;5032756;28;20112;-59
2022/06/12 07:56:12;;;;;;;11.63;4.30;;;;;;;;;;5033858;28;20057;-59
2022/06/12 07:58:41;;;;;;;10.70;4.38;;;;;;;;;;5033406;28;20021;-59
2022/06/12 08:01:09;;;;;;;12.02;4.25;;;;;;;;;;5033581;28;20041;-59
2022/06/12 08:03:37;;;;;;;11.75;4.00;;;;;;;;;;5032976;28;20036;-59
2022/06/12 08:06:04;;;;;;;11.45;4.00;;;;;;;;;;5033667;28;20423;-59
2022/06/12 08:08:31;;;;;;;9.60;3.92;;;;;;;;;;5033341;28;20029;-59
2022/06/12 08:10:58;;;;;;;11.52;3.78;;;;;;;;;;5033187;28;20106;-59
2022/06/12 08:13:25;;;;;;;8.85;3.90;;;;;;;;;;5033431;28;20025;-59
2022/06/12 08:15:53;;;;;;;8.70;3.83;;;;;;;;;;5033552;28;20395;-59
2022/06/12 08:18:20;;;;;;;11.70;4.15;;;;;;;;;;5032773;28;20033;-59
2022/06/12 08:20:49;;;;;;;11.80;4.10;;;;;;;;;;5033327;28;20048;-59
2022/06/12 08:23:37;;;;;;;9.68;3.85;;;;;;;;;;5032923;28;20029;-59
2022/06/12 08:26:10;;;;;;;9.82;3.80;;;;;;;;;;5032997;28;20025;-59
2022/06/12 08:28:39;;;;;;;9.48;3.83;;;;;;;;;;5032520;28;20049;-59
2022/06/12 08:31:08;;;;;;;10.88;3.78;;;;;;;;;;5032661;28;20030;-59
2022/06/12 08:33:36;;;;;;;10.63;3.65;;;;;;;;;;5033271;28;20029;-59
2022/06/12 08:36:04;;;;;;;8.80;3.30;;;;;;;;;;5032330;28;20025;-59
2022/06/12 08:38:31;;;;;;;8.52;3.47;;;;;;;;;;5015105;28;20502;-59
2022/06/12 08:41:20;;;;;;;10.13;3.70;;;;;;;;;;5014869;28;20518;-59
2022/06/12 08:43:47;;;;;;;9.75;3.65;;;;;;;;;;5032596;28;20426;-59
2022/06/12 08:46:35;;;;;;;7.25;3.30;;;;;;;;;;5032088;28;20025;-59
2022/06/12 08:49:20;;;;;;;9.57;3.30;;;;;;;;;;5032555;28;20021;-59
2022/06/12 08:51:51;;;;;;;7.80;3.03;;;;;;;;;;5032789;28;20041;-59
2022/06/12 08:54:40;;;;;;;6.40;2.75;;;;;;;;;;5032261;28;20040;-59
2022/06/12 08:57:19;;;;;;;7.13;3.35;;;;;;;;;;5032632;28;20029;-59
2022/06/12 08:59:50;;;;;;;9.05;3.75;;;;;;;;;;5032488;28;20499;-59
2022/06/12 09:02:26;;;;;;;8.60;3.30;;;;;;;;;;5031968;28;20448;-59
2022/06/12 09:04:53;;;;;;;10.13;3.28;;;;;;;;;;5032182;28;20155;-59
2022/06/12 09:07:36;;;;;;;8.98;3.17;;;;;;;;;;5031816;28;20025;-59
2022/06/12 09:10:09;;;;;;;6.95;3.08;;;;;;;;;;5031982;28;20419;-59
2022/06/12 09:12:39;;;;;;;6.80;2.70;;;;;;;;;;5032322;28;20025;-59
2022/06/12 09:15:06;;;;;;;5.55;2.60;;;;;;;;;;5032264;28;20361;-59
2022/06/12 09:17:41;;;;;;;7.35;2.78;;;;;;;;;;5032454;28;20025;-59
2022/06/12 09:20:12;;;;;;;7.30;3.20;;;;;;;;;;5032075;28;20587;-59
2022/06/12 09:22:56;;;;;;;5.55;2.78;;;;;;;;;;5032053;28;20041;-59
2022/06/12 09:25:29;;;;;;;7.55;2.97;;;;;;;;;;5031376;28;20126;-59
2022/06/12 09:28:07;;;;;;;8.75;3.10;;;;;;;;;;5031784;28;20045;-59
2022/06/12 09:30:53;;;;;;;4.97;2.45;;;;;;;;;;5032039;28;20673;-59
2022/06/12 09:33:46;;;;;;;8.52;2.92;;;;;;;;;;5031652;28;20071;-59
2022/06/12 09:36:28;;;;;;;5.40;2.38;;;;;;;;;;5016425;28;20132;-59
2022/06/12 09:38:55;;;;;;;6.63;2.70;;;;;;;;;;5030396;28;20026;-59
2022/06/12 09:41:25;;;;;;;6.25;2.53;;;;;;;;;;5031900;28;20114;-59
2022/06/12 09:43:55;;;;;;;6.80;2.72;;;;;;;;;;5031671;28;20029;-59
2022/06/12 09:46:38;;;;;;;8.20;2.75;;;;;;;;;;5031022;28;20029;-59
2022/06/12 09:49:23;;;;;;;7.20;2.60;;;;;;;;;;5031790;28;20025;-59
2022/06/12 09:52:08;;;;;;;7.65;2.88;;;;;;;;;;5031412;28;20508;-59
2022/06/12 09:54:35;;;;;;;6.60;2.50;;;;;;;;;;5030928;28;20141;-59
2022/06/12 09:57:04;;;;;;;7.65;2.63;;;;;;;;;;5031438;28;20056;-59
2022/06/12 09:59:37;;;;;;;7.55;2.95;;;;;;;;;;5031808;28;20034;-59
2022/06/12 10:02:10;;;;;;;7.25;2.53;;;;;;;;;;5031133;28;20087;-59
2022/06/12 10:04:45;;;;;;;7.53;2.60;;;;;;;;;;5031057;28;20443;-59
2022/06/12 10:07:16;;;;;;;8.90;2.67;;;;;;;;;;5030754;28;20099;-59
2022/06/12 10:09:47;;;;;;;6.57;2.80;;;;;;;;;;5031720;28;20032;-59
2022/06/12 10:12:34;;;;;;;8.00;2.20;;;;;;;;;;5030938;28;20053;-59
2022/06/12 10:15:04;;;;;;;6.25;2.42;;;;;;;;;;5031159;28;20107;-59
2022/06/12 10:17:38;;;;;;;7.68;2.42;;;;;;;;;;5031055;28;20438;-59
2022/06/12 10:20:20;;;;;;;6.72;2.33;;;;;;;;;;5031197;28;20104;-59
2022/06/12 10:22:47;;;;;;;;;;;;;;;;;;5032037;28;20038;-59
2022/06/12 10:25:19;;;;;;;5.18;2.20;;;;;;;;;;5029225;28;19909;-59
2022/06/12 10:27:54;;;;;;;4.13;1.98;;;;;;;;;;5012822;28;20053;-59
2022/06/12 10:30:33;;;;;;;6.45;2.28;;;;;;;;;;5030924;28;20029;-59
2022/06/12 10:33:09;;;;;;;7.68;2.33;;;;;;;;;;5031388;28;20442;-60
2022/06/12 10:35:45;;;;;;;7.43;2.13;;;;;;;;;;5030781;28;20024;-59
2022/06/12 10:38:12;;;;;;;5.75;2.63;;;;;;;;;;5031629;28;20029;-59
2022/06/12 10:40:47;;;;;;;5.57;2.35;;;;;;;;;;5013486;28;20029;-59
2022/06/12 10:43:24;;;;;;;6.88;2.63;;;;;;;;;;5030501;28;20029;-59
2022/06/12 10:46:02;;;;;;;4.38;1.90;;;;;;;;;;5031412;28;20049;-59
2022/06/12 10:48:30;;;;;;;5.25;2.40;;;;;;;;;;5031137;28;20025;-59
2022/06/12 10:51:21;;;;;;;5.43;2.17;;;;;;;;;;5032972;28;20071;-59
2022/06/12 10:53:48;;;;;;;8.27;2.35;;;;;;;;;;5028840;28;20073;-59
2022/06/12 10:56:28;;;;;;;5.93;2.20;;;;;;;;;;5034455;28;20034;-59
2022/06/12 10:58:55;;;;;;;4.65;1.92;;;;;;;;;;5034959;28;20506;-59
2022/06/12 11:01:21;;;;;;;6.93;2.00;;;;;;;;;;5034918;28;20036;-59
2022/06/12 11:03:48;;;;;;;4.85;2.10;;;;;;;;;;5016602;28;20395;-59
2022/06/12 11:06:45;;;;;;;5.32;2.40;;;;;;;;;;5033892;28;20100;-59
2022/06/12 11:09:16;;;;;;;5.45;2.08;;;;;;;;;;5025676;28;20033;-59
2022/06/12 11:11:58;;;;;;;6.83;2.33;;;;;;;;;;5016667;28;20048;-59
2022/06/12 11:14:51;;;;;;;5.68;2.40;;;;;;;;;;5034720;28;20026;-60
2022/06/12 11:17:39;;;;;;;5.93;2.20;;;;;;;;;;5032105;28;20044;-60
2022/06/12 11:20:17;;;;;;;4.60;1.95;;;;;;;;;;5016647;28;20114;-60
2022/06/12 11:22:53;;;;;;;4.65;1.75;;;;;;;;;;5033580;28;20052;-60
2022/06/12 11:25:42;;;;;;;5.85;2.03;;;;;;;;;;5034050;28;20021;-61
2022/06/12 11:28:10;;;;;;;5.90;2.28;;;;;;;;;;5032995;28;20052;-60
2022/06/12 11:30:42;;;;;;;6.90;2.17;;;;;;;;;;5016699;28;20033;-60
2022/06/12 11:33:32;;;;;;;4.47;2.13;;;;;;;;;;5033600;28;20024;-61
2022/06/12 11:36:07;;;;;;;5.50;1.80;;;;;;;;;;5028934;28;20033;-61
2022/06/12 11:38:40;;;;;;;4.65;2.00;;;;;;;;;;5033767;28;20033;-60
2022/06/12 11:41:15;;;;;;;4.82;1.98;;;;;;;;;;5033539;28;20030;-60
2022/06/12 11:44:14;;;;;;;6.13;2.40;;;;;;;;;;5016182;28;20040;-60
2022/06/12 11:47:00;;;;;;;4.35;1.88;;;;;;;;;;5010880;28;20041;-61
2022/06/12 11:49:56;;;;;;;6.40;1.92;;;;;;;;;;5033740;28;20045;-60
2022/06/12 11:52:35;;;;;;;5.53;2.40;;;;;;;;;;5012320;28;20137;-61
2022/06/12 11:55:02;;;;;;;4.70;2.00;;;;;;;;;;5033815;28;20040;-60
2022/06/12 11:57:38;;;;;;;5.45;1.92;;;;;;;;;;5033466;28;20384;-61
2022/06/12 12:00:14;;;;;;;4.88;1.65;;;;;;;;;;5032949;28;20095;-59
2022/06/12 12:02:53;;;;;;;5.65;1.65;;;;;;;;;;5031915;28;20112;-59
2022/06/12 12:05:26;;;;;;;5.43;1.92;;;;;;;;;;5033542;28;20075;-59
2022/06/12 12:07:54;;;;;;;5.15;1.88;;;;;;;;;;5033063;28;20109;-59
2022/06/12 12:10:20;;;;;;;4.30;1.55;;;;;;;;;;5033802;28;20076;-59
2022/06/12 12:12:50;;;;;;;5.00;1.85;;;;;;;;;;5031237;28;20037;-61
2022/06/12 12:15:19;;;;;;;6.78;1.95;;;;;;;;;;5033475;28;20021;-61
2022/06/12 12:17:48;;;;;;;4.88;1.92;;;;;;;;;;5033238;28;20025;-60
2022/06/12 12:20:26;;;;;;;5.43;1.88;;;;;;;;;;5032735;28;20080;-61
2022/06/12 12:22:53;;;;;;;5.22;1.65;;;;;;;;;;5033624;28;20029;-60
2022/06/12 12:25:24;;;;;;;5.05;1.80;;;;;;;;;;5032306;28;20029;-60
2022/06/12 12:27:53;;;;;;;5.45;1.50;;;;;;;;;;5033277;28;20092;-61
2022/06/12 12:30:22;;;;;;;5.07;1.98;;;;;;;;;;5015390;28;20041;-60
2022/06/12 12:32:50;;;;;;;4.95;1.80;;;;;;;;;;5015070;28;20041;-60
2022/06/12 12:43:47;;;;;;;3.63;1.70;;;;;;;;;;5032822;28;20479;-60
2022/06/12 12:46:14;;;;;;;5.43;1.70;;;;;;;;;;5032994;28;20080;-60
2022/06/12 12:48:42;;;;;;;4.60;1.75;;;;;;;;;;5032748;28;20113;-61
2022/06/12 12:51:10;;;;;;;3.20;1.70;;;;;;;;;;5031968;28;20025;-60
2022/06/12 12:53:38;;;;;;;3.05;1.75;;;;;;;;;;5032509;28;20487;-60
2022/06/12 12:56:12;;;;;;;5.05;2.17;;;;;;;;;;5032300;28;20017;-60
2022/06/12 12:59:00;;;;;;;5.60;1.50;;;;;;;;;;5032666;28;20080;-60
2022/06/12 13:01:36;;;;;;;3.03;1.48;;;;;;;;;;5032025;28;20017;-60
2022/06/12 13:04:15;;;;;;;2.88;1.38;;;;;;;;;;5032642;28;20460;-60
2022/06/12 13:07:00;;;;;;;4.03;1.60;;;;;;;;;;5032150;28;20057;-60
2022/06/12 13:09:39;;;;;;;3.20;1.58;;;;;;;;;;5031907;28;20104;-60
2022/06/12 13:12:16;;;;;;;4.10;1.77;;;;;;;;;;5032790;28;20028;-59
2022/06/12 13:14:46;;;;;;;4.55;1.70;;;;;;;;;;5041205;28;20055;-60
2022/06/12 13:17:13;;;;;;;3.55;1.52;;;;;;;;;;5039760;28;20061;-59
2022/06/12 13:19:43;;;;;;;5.63;1.95;;;;;;;;;;5039685;28;20029;-59
2022/06/12 13:22:22;;;;;;;5.20;1.55;;;;;;;;;;5027837;28;20096;-59
2022/06/12 13:24:49;;;;;;;4.10;1.45;;;;;;;;;;5025610;28;20029;-59
2022/06/12 13:27:31;;;;;;;5.63;1.63;;;;;;;;;;5015461;28;20065;-60
2022/06/12 13:29:58;;;;;;;3.65;1.77;;;;;;;;;;5027815;28;20044;-58
2022/06/12 13:32:30;;;;;;;4.22;1.73;;;;;;;;;;5029106;28;20399;-59
2022/06/12 13:35:02;;;;;;;3.53;1.27;;;;;;;;;;5022948;28;20506;-60
2022/06/12 13:37:30;;;;;;;5.57;2.28;;;;;;;;;;5030911;28;20032;-59
2022/06/12 13:40:00;;;;;;;6.05;1.40;;;;;;;;;;5015191;28;20018;-60
2022/06/12 13:42:29;;;;;;;4.15;1.60;;;;;;;;;;5013927;28;20144;-59
2022/06/12 13:44:58;;;;;;;3.58;1.52;;;;;;;;;;5021774;28;20759;-59
2022/06/12 13:47:38;;;;;;;5.22;1.40;;;;;;;;;;5024432;28;20041;-59
2022/06/12 13:50:08;;;;;;;4.03;1.35;;;;;;;;;;5029371;28;20032;-59
2022/06/12 13:52:38;;;;;;;4.13;1.50;;;;;;;;;;5024998;28;20382;-59
2022/06/12 13:55:06;;;;;;;;;;;;;;;;;;5019680;28;20526;-59
2022/06/12 13:57:39;;;;;;;4.38;1.70;;;;;;;;;;5026528;28;19995;-59
2022/06/12 14:00:24;;;;;;;6.55;1.50;;;;;;;;;;5020924;28;20022;-59
2022/06/12 14:02:51;;;;;;;6.03;1.60;;;;;;;;;;5018889;28;20064;-59
2022/06/12 14:05:31;;;;;;;4.13;1.52;;;;;;;;;;5026289;28;20399;-59
2022/06/12 14:08:00;;;;;;;6.15;1.60;;;;;;;;;;5018894;28;20495;-59
2022/06/12 14:10:30;;;;;;;4.60;1.50;;;;;;;;;;5023702;28;20037;-60
2022/06/12 14:13:02;;;;;;;3.83;1.70;;;;;;;;;;5017106;28;20033;-59
2022/06/12 14:15:40;;;;;;;4.82;1.40;;;;;;;;;;5019728;28;20069;-60
2022/06/12 14:18:08;;;;;;;4.35;1.42;;;;;;;;;;5027462;28;20567;-58
2022/06/12 14:20:36;;;;;;;5.80;1.75;;;;;;;;;;5006413;28;20033;-59
2022/06/12 14:23:16;;;;;;;5.53;1.63;;;;;;;;;;5022540;28;20068;-59
2022/06/12 14:25:48;;;;;;;3.50;1.50;;;;;;;;;;5027678;28;20169;-60
2022/06/12 14:28:15;;;;;;;5.07;1.90;;;;;;;;;;5020778;28;21130;-59
2022/06/12 14:31:06;;;;;;;3.13;1.67;;;;;;;;;;5028577;28;20037;-59
2022/06/12 14:33:36;;;;;;;7.53;1.40;;;;;;;;;;5021280;28;20612;-61
2022/06/12 14:36:10;;;;;;;6.15;1.38;;;;;;;;;;5025331;28;20026;-59
2022/06/12 14:38:39;;;;;;;6.47;1.65;;;;;;;;;;5026927;28;20035;-59
2022/06/12 14:41:19;;;;;;;3.53;1.38;;;;;;;;;;5021278;28;20127;-59
2022/06/12 14:43:47;;;;;;;6.07;1.73;;;;;;;;;;5021474;28;20040;-60
2022/06/12 14:46:16;;;;;;;4.50;1.50;;;;;;;;;;5027321;28;20064;-59
2022/06/12 14:48:44;;;;;;;13.20;1.63;;;;;;;;;;5027728;28;20022;-60
2022/06/12 14:51:11;;;;;;;6.65;1.52;;;;;;;;;;5025372;28;20030;-59
2022/06/12 14:53:39;;;;;;;10.20;1.60;;;;;;;;;;5024595;28;20468;-59
2022/06/12 14:56:12;;;;;;;13.23;1.88;;;;;;;;;;5026213;28;20026;-59
2022/06/12 14:58:41;;;;;;;10.48;1.70;;;;;;;;;;5024887;28;20039;-59
2022/06/12 15:01:10;;;;;;;9.55;2.10;;;;;;;;;;5030849;28;20025;-59
2022/06/12 15:03:37;;;;;;;4.80;1.58;;;;;;;;;;5029055;28;20092;-62
2022/06/12 15:06:04;;;;;;;9.48;1.77;;;;;;;;;;5026464;28;20029;-59
2022/06/12 15:08:31;;;;;;;3.95;1.70;;;;;;;;;;5027187;28;20032;-59
2022/06/12 15:10:58;;;;;;;7.30;1.50;;;;;;;;;;5032454;28;20022;-60
2022/06/12 15:13:31;;;;;;;9.27;1.80;;;;;;;;;;5023322;28;20068;-59
2022/06/12 15:15:58;;;;;;;7.03;2.30;;;;;;;;;;5026762;28;20035;-59
2022/06/12 15:18:25;;;;;;;5.68;1.63;;;;;;;;;;5024251;28;20025;-60